sensor_id;sensor_type;location;lat;lon;timestamp;pressure;altitude;pressure_sealevel;temperature
69597;BMP180;70000;51.176;-115.568;2024-03-22T00:01:07;86366.80;;;0.18
69597;BMP180;70000;51.176;-115.568;2024-03-22T00:03:35;86366.40;;;0.20
69597;BMP180;70000;51.176;-115.568;2024-03-22T00:06:05;86370.20;;;0.20
69597;BMP180;70000;51.176;-115.568;2024-03-22T00:08:33;86382.80;;;0.18
69597;BMP180;70000;51.176;-115.568;2024-03-22T00:11:02;86374.40;;;0.10
69597;BMP180;70000;51.176;-115.568;2024-03-22T00:13:34;86385.40;;;0.10
69597;BMP180;70000;51.176;-115.568;2024-03-22T00:16:04;86389.20;;;0.00
69597;BMP180;70000;51.176;-115.568;2024-03-22T00:18:54;86396.40;;;0.00
69597;BMP180;70000;51.176;-115.568;2024-03-22T00:21:24;86397.00;;;0.00
69597;BMP180;70000;51.176;-115.568;2024-03-22T00:23:52;86401.60;;;-0.02
69597;BMP180;70000;51.176;-115.568;2024-03-22T00:32:57;86408.80;;;-0.20
69597;BMP180;70000;51.176;-115.568;2024-03-22T00:35:46;86415.40;;;-0.28
69597;BMP180;70000;51.176;-115.568;2024-03-22T00:38:18;86417.20;;;-0.30
69597;BMP180;70000;51.176;-115.568;2024-03-22T00:40:48;86419.40;;;-0.40
69597;BMP180;70000;51.176;-115.568;2024-03-22T00:43:16;86422.40;;;-0.40
69597;BMP180;70000;51.176;-115.568;2024-03-22T00:45:45;86423.00;;;-0.50
69597;BMP180;70000;51.176;-115.568;2024-03-22T00:51:24;86441.60;;;-0.60
69597;BMP180;70000;51.176;-115.568;2024-03-22T00:53:53;86434.60;;;-0.60
69597;BMP180;70000;51.176;-115.568;2024-03-22T00:56:23;86443.60;;;-0.70
69597;BMP180;70000;51.176;-115.568;2024-03-22T00:58:51;86455.20;;;-0.70
69597;BMP180;70000;51.176;-115.568;2024-03-22T01:01:20;86456.00;;;-0.70
69597;BMP180;70000;51.176;-115.568;2024-03-22T01:03:52;86460.60;;;-0.70
69597;BMP180;70000;51.176;-115.568;2024-03-22T01:06:21;86463.80;;;-0.70
69597;BMP180;70000;51.176;-115.568;2024-03-22T01:08:53;86465.60;;;-0.72
69597;BMP180;70000;51.176;-115.568;2024-03-22T01:11:26;86462.40;;;-0.78
69597;BMP180;70000;51.176;-115.568;2024-03-22T01:13:55;86467.40;;;-0.80
69597;BMP180;70000;51.176;-115.568;2024-03-22T01:16:24;86477.00;;;-0.80
69597;BMP180;70000;51.176;-115.568;2024-03-22T01:18:56;86475.80;;;-0.80
69597;BMP180;70000;51.176;-115.568;2024-03-22T01:21:25;86476.40;;;-0.80
69597;BMP180;70000;51.176;-115.568;2024-03-22T01:27:01;86484.40;;;-0.90
69597;BMP180;70000;51.176;-115.568;2024-03-22T01:29:30;86485.40;;;-0.90
69597;BMP180;70000;51.176;-115.568;2024-03-22T01:35:01;86489.40;;;-1.10
69597;BMP180;70000;51.176;-115.568;2024-03-22T01:37:30;86487.00;;;-1.10
69597;BMP180;70000;51.176;-115.568;2024-03-22T01:39:59;86492.20;;;-1.10
69597;BMP180;70000;51.176;-115.568;2024-03-22T01:45:47;86509.00;;;-1.20
69597;BMP180;70000;51.176;-115.568;2024-03-22T01:48:16;86520.20;;;-1.24
69597;BMP180;70000;51.176;-115.568;2024-03-22T01:50:45;86521.60;;;-1.30
69597;BMP180;70000;51.176;-115.568;2024-03-22T01:53:15;86526.40;;;-1.30
69597;BMP180;70000;51.176;-115.568;2024-03-22T01:55:47;86525.60;;;-1.30
69597;BMP180;70000;51.176;-115.568;2024-03-22T01:58:18;86522.40;;;-1.30
69597;BMP180;70000;51.176;-115.568;2024-03-22T02:00:47;86525.60;;;-1.30
69597;BMP180;70000;51.176;-115.568;2024-03-22T02:03:16;86523.00;;;-1.34
69597;BMP180;70000;51.176;-115.568;2024-03-22T02:05:45;86524.40;;;-1.40
69597;BMP180;70000;51.176;-115.568;2024-03-22T02:08:14;86536.60;;;-1.50
69597;BMP180;70000;51.176;-115.568;2024-03-22T02:10:47;86538.80;;;-1.60
69597;BMP180;70000;51.176;-115.568;2024-03-22T02:13:15;86530.40;;;-1.64
69597;BMP180;70000;51.176;-115.568;2024-03-22T02:15:44;86537.80;;;-1.70
69597;BMP180;70000;51.176;-115.568;2024-03-22T02:18:13;86544.60;;;-1.72
69597;BMP180;70000;51.176;-115.568;2024-03-22T02:20:42;86549.80;;;-1.80
69597;BMP180;70000;51.176;-115.568;2024-03-22T02:23:11;86555.80;;;-1.88
69597;BMP180;70000;51.176;-115.568;2024-03-22T02:29:08;86561.80;;;-1.94
69597;BMP180;70000;51.176;-115.568;2024-03-22T02:31:36;86565.00;;;-1.96
69597;BMP180;70000;51.176;-115.568;2024-03-22T02:34:05;86562.40;;;-2.00
69597;BMP180;70000;51.176;-115.568;2024-03-22T02:36:33;86566.00;;;-2.10
69597;BMP180;70000;51.176;-115.568;2024-03-22T02:39:01;86565.20;;;-2.10
69597;BMP180;70000;51.176;-115.568;2024-03-22T02:41:29;86572.20;;;-2.10
69597;BMP180;70000;51.176;-115.568;2024-03-22T02:44:01;86582.20;;;-2.10
69597;BMP180;70000;51.176;-115.568;2024-03-22T02:46:43;86594.40;;;-2.10
69597;BMP180;70000;51.176;-115.568;2024-03-22T02:49:14;86594.40;;;-2.10
69597;BMP180;70000;51.176;-115.568;2024-03-22T02:51:42;86601.80;;;-2.10
69597;BMP180;70000;51.176;-115.568;2024-03-22T02:54:11;86604.40;;;-2.14
69597;BMP180;70000;51.176;-115.568;2024-03-22T02:56:39;86607.00;;;-2.20
69597;BMP180;70000;51.176;-115.568;2024-03-22T02:59:08;86609.40;;;-2.26
69597;BMP180;70000;51.176;-115.568;2024-03-22T03:01:36;86616.20;;;-2.30
69597;BMP180;70000;51.176;-115.568;2024-03-22T03:04:05;86621.00;;;-2.30
69597;BMP180;70000;51.176;-115.568;2024-03-22T03:06:33;86615.20;;;-2.38
69597;BMP180;70000;51.176;-115.568;2024-03-22T03:09:02;86622.80;;;-2.40
69597;BMP180;70000;51.176;-115.568;2024-03-22T03:11:33;86620.40;;;-2.50
69597;BMP180;70000;51.176;-115.568;2024-03-22T03:28:02;86641.40;;;-2.12
69597;BMP180;70000;51.176;-115.568;2024-03-22T03:30:30;86646.40;;;-2.00
69597;BMP180;70000;51.176;-115.568;2024-03-22T03:33:03;86644.20;;;-2.10
69597;BMP180;70000;51.176;-115.568;2024-03-22T03:35:34;86648.40;;;-2.12
69597;BMP180;70000;51.176;-115.568;2024-03-22T03:38:03;86644.60;;;-2.20
69597;BMP180;70000;51.176;-115.568;2024-03-22T03:40:31;86651.60;;;-2.30
69597;BMP180;70000;51.176;-115.568;2024-03-22T03:42:59;86643.00;;;-2.40
69597;BMP180;70000;51.176;-115.568;2024-03-22T03:45:28;86649.80;;;-2.50
69597;BMP180;70000;51.176;-115.568;2024-03-22T03:47:56;86642.20;;;-2.60
69597;BMP180;70000;51.176;-115.568;2024-03-22T03:50:25;86649.60;;;-2.70
69597;BMP180;70000;51.176;-115.568;2024-03-22T03:53:18;86650.20;;;-2.80
69597;BMP180;70000;51.176;-115.568;2024-03-22T03:55:48;86649.60;;;-2.80
69597;BMP180;70000;51.176;-115.568;2024-03-22T03:58:17;86656.00;;;-2.80
69597;BMP180;70000;51.176;-115.568;2024-03-22T04:00:46;86657.20;;;-2.80
69597;BMP180;70000;51.176;-115.568;2024-03-22T04:03:19;86658.20;;;-2.80
69597;BMP180;70000;51.176;-115.568;2024-03-22T04:05:57;86670.00;;;-2.86
69597;BMP180;70000;51.176;-115.568;2024-03-22T04:08:27;86670.80;;;-2.86
69597;BMP180;70000;51.176;-115.568;2024-03-22T04:11:00;86672.80;;;-2.90
69597;BMP180;70000;51.176;-115.568;2024-03-22T04:13:32;86676.60;;;-2.90
69597;BMP180;70000;51.176;-115.568;2024-03-22T04:16:01;86677.00;;;-2.90
69597;BMP180;70000;51.176;-115.568;2024-03-22T04:18:31;86683.20;;;-2.92
69597;BMP180;70000;51.176;-115.568;2024-03-22T04:21:01;86685.20;;;-3.00
69597;BMP180;70000;51.176;-115.568;2024-03-22T04:23:35;86690.60;;;-3.00
69597;BMP180;70000;51.176;-115.568;2024-03-22T04:26:04;86691.60;;;-3.00
69597;BMP180;70000;51.176;-115.568;2024-03-22T04:28:34;86690.20;;;-3.00
69597;BMP180;70000;51.176;-115.568;2024-03-22T04:31:09;86693.20;;;-2.98
69597;BMP180;70000;51.176;-115.568;2024-03-22T04:33:42;86689.20;;;-2.96
69597;BMP180;70000;51.176;-115.568;2024-03-22T04:36:15;86680.20;;;-2.90
69597;BMP180;70000;51.176;-115.568;2024-03-22T04:38:44;86679.60;;;-2.94
69597;BMP180;70000;51.176;-115.568;2024-03-22T04:41:32;86687.00;;;-3.00
69597;BMP180;70000;51.176;-115.568;2024-03-22T04:44:01;86686.80;;;-3.00
69597;BMP180;70000;51.176;-115.568;2024-03-22T04:46:30;86689.00;;;-3.00
69597;BMP180;70000;51.176;-115.568;2024-03-22T04:51:49;86693.00;;;-3.10
69597;BMP180;70000;51.176;-115.568;2024-03-22T04:54:18;86693.80;;;-3.10
69597;BMP180;70000;51.176;-115.568;2024-03-22T04:56:48;86696.40;;;-3.10
69597;BMP180;70000;51.176;-115.568;2024-03-22T04:59:17;86690.60;;;-3.10
69597;BMP180;70000;51.176;-115.568;2024-03-22T05:01:46;86688.40;;;-3.10
69597;BMP180;70000;51.176;-115.568;2024-03-22T05:04:15;86689.00;;;-3.20
69597;BMP180;70000;51.176;-115.568;2024-03-22T05:18:54;86717.80;;;-3.20
69597;BMP180;70000;51.176;-115.568;2024-03-22T05:21:22;86716.20;;;-3.20
69597;BMP180;70000;51.176;-115.568;2024-03-22T05:23:50;86720.20;;;-3.20
69597;BMP180;70000;51.176;-115.568;2024-03-22T05:31:48;86706.40;;;-3.30
69597;BMP180;70000;51.176;-115.568;2024-03-22T05:38:02;86709.80;;;-3.30
69597;BMP180;70000;51.176;-115.568;2024-03-22T05:40:31;86709.40;;;-3.36
69597;BMP180;70000;51.176;-115.568;2024-03-22T05:43:00;86705.40;;;-3.40
69597;BMP180;70000;51.176;-115.568;2024-03-22T05:45:32;86710.80;;;-3.40
69597;BMP180;70000;51.176;-115.568;2024-03-22T05:48:01;86716.00;;;-3.40
69597;BMP180;70000;51.176;-115.568;2024-03-22T05:50:30;86711.40;;;-3.40
69597;BMP180;70000;51.176;-115.568;2024-03-22T05:52:59;86711.40;;;-3.40
69597;BMP180;70000;51.176;-115.568;2024-03-22T05:55:28;86709.00;;;-3.40
69597;BMP180;70000;51.176;-115.568;2024-03-22T05:57:59;86708.60;;;-3.40
69597;BMP180;70000;51.176;-115.568;2024-03-22T06:00:28;86708.40;;;-3.50
69597;BMP180;70000;51.176;-115.568;2024-03-22T06:02:57;86708.00;;;-3.50
69597;BMP180;70000;51.176;-115.568;2024-03-22T06:05:26;86702.00;;;-3.50
69597;BMP180;70000;51.176;-115.568;2024-03-22T06:07:54;86704.20;;;-3.50
69597;BMP180;70000;51.176;-115.568;2024-03-22T06:10:23;86701.00;;;-3.50
69597;BMP180;70000;51.176;-115.568;2024-03-22T06:12:52;86699.60;;;-3.54
69597;BMP180;70000;51.176;-115.568;2024-03-22T06:15:21;86701.80;;;-3.50
69597;BMP180;70000;51.176;-115.568;2024-03-22T06:18:10;86699.40;;;-3.50
69597;BMP180;70000;51.176;-115.568;2024-03-22T06:20:39;86705.20;;;-3.50
69597;BMP180;70000;51.176;-115.568;2024-03-22T06:23:11;86702.00;;;-3.58
69597;BMP180;70000;51.176;-115.568;2024-03-22T06:25:40;86701.80;;;-3.60
69597;BMP180;70000;51.176;-115.568;2024-03-22T06:31:18;86706.60;;;-3.60
69597;BMP180;70000;51.176;-115.568;2024-03-22T06:33:47;86705.40;;;-3.54
69597;BMP180;70000;51.176;-115.568;2024-03-22T06:36:16;86706.80;;;-3.58
69597;BMP180;70000;51.176;-115.568;2024-03-22T06:38:48;86710.40;;;-3.54
69597;BMP180;70000;51.176;-115.568;2024-03-22T06:41:17;86709.40;;;-3.58
69597;BMP180;70000;51.176;-115.568;2024-03-22T06:43:52;86711.40;;;-3.60
69597;BMP180;70000;51.176;-115.568;2024-03-22T06:46:21;86714.40;;;-3.60
69597;BMP180;70000;51.176;-115.568;2024-03-22T06:48:52;86713.40;;;-3.60
69597;BMP180;70000;51.176;-115.568;2024-03-22T06:51:21;86722.20;;;-3.60
69597;BMP180;70000;51.176;-115.568;2024-03-22T06:53:50;86721.40;;;-3.60
69597;BMP180;70000;51.176;-115.568;2024-03-22T06:56:19;86711.60;;;-3.60
69597;BMP180;70000;51.176;-115.568;2024-03-22T06:58:48;86715.00;;;-3.60
69597;BMP180;70000;51.176;-115.568;2024-03-22T07:01:17;86715.00;;;-3.60
69597;BMP180;70000;51.176;-115.568;2024-03-22T07:06:54;86714.80;;;-3.50
69597;BMP180;70000;51.176;-115.568;2024-03-22T07:09:44;86708.00;;;-3.50
69597;BMP180;70000;51.176;-115.568;2024-03-22T07:12:14;86703.00;;;-3.50
69597;BMP180;70000;51.176;-115.568;2024-03-22T07:14:43;86702.60;;;-3.50
69597;BMP180;70000;51.176;-115.568;2024-03-22T07:17:15;86709.80;;;-3.56
69597;BMP180;70000;51.176;-115.568;2024-03-22T07:19:44;86708.40;;;-3.60
69597;BMP180;70000;51.176;-115.568;2024-03-22T07:22:13;86710.00;;;-3.60
69597;BMP180;70000;51.176;-115.568;2024-03-22T07:24:42;86702.40;;;-3.70
69597;BMP180;70000;51.176;-115.568;2024-03-22T07:27:13;86700.60;;;-3.70
69597;BMP180;70000;51.176;-115.568;2024-03-22T07:29:45;86706.80;;;-3.70
69597;BMP180;70000;51.176;-115.568;2024-03-22T07:32:16;86705.40;;;-3.70
69597;BMP180;70000;51.176;-115.568;2024-03-22T07:34:46;86707.20;;;-3.70
69597;BMP180;70000;51.176;-115.568;2024-03-22T07:37:16;86708.40;;;-3.80
69597;BMP180;70000;51.176;-115.568;2024-03-22T07:39:48;86708.20;;;-3.80
69597;BMP180;70000;51.176;-115.568;2024-03-22T07:42:17;86710.60;;;-3.80
69597;BMP180;70000;51.176;-115.568;2024-03-22T07:44:46;86715.60;;;-3.80
69597;BMP180;70000;51.176;-115.568;2024-03-22T07:51:15;86717.00;;;-3.72
69597;BMP180;70000;51.176;-115.568;2024-03-22T07:53:43;86716.40;;;-3.70
69597;BMP180;70000;51.176;-115.568;2024-03-22T07:56:14;86710.60;;;-3.70
69597;BMP180;70000;51.176;-115.568;2024-03-22T07:58:43;86708.40;;;-3.70
69597;BMP180;70000;51.176;-115.568;2024-03-22T08:01:12;86708.00;;;-3.70
69597;BMP180;70000;51.176;-115.568;2024-03-22T08:03:43;86702.80;;;-3.70
69597;BMP180;70000;51.176;-115.568;2024-03-22T08:06:12;86707.60;;;-3.66
69597;BMP180;70000;51.176;-115.568;2024-03-22T08:08:40;86708.00;;;-3.60
69597;BMP180;70000;51.176;-115.568;2024-03-22T08:11:08;86712.60;;;-3.66
69597;BMP180;70000;51.176;-115.568;2024-03-22T08:13:37;86714.80;;;-3.66
69597;BMP180;70000;51.176;-115.568;2024-03-22T08:16:06;86707.80;;;-3.70
69597;BMP180;70000;51.176;-115.568;2024-03-22T08:18:34;86708.60;;;-3.70
69597;BMP180;70000;51.176;-115.568;2024-03-22T08:21:03;86707.40;;;-3.70
69597;BMP180;70000;51.176;-115.568;2024-03-22T08:23:31;86709.80;;;-3.70
69597;BMP180;70000;51.176;-115.568;2024-03-22T08:26:00;86709.60;;;-3.70
69597;BMP180;70000;51.176;-115.568;2024-03-22T08:28:29;86709.00;;;-3.70
69597;BMP180;70000;51.176;-115.568;2024-03-22T08:31:06;86706.40;;;-3.70
69597;BMP180;70000;51.176;-115.568;2024-03-22T08:36:43;86702.00;;;-3.70
69597;BMP180;70000;51.176;-115.568;2024-03-22T08:39:12;86697.80;;;-3.70
69597;BMP180;70000;51.176;-115.568;2024-03-22T08:41:45;86704.80;;;-3.70
69597;BMP180;70000;51.176;-115.568;2024-03-22T08:44:14;86702.00;;;-3.70
69597;BMP180;70000;51.176;-115.568;2024-03-22T08:46:43;86703.00;;;-3.68
69597;BMP180;70000;51.176;-115.568;2024-03-22T08:52:00;86706.40;;;-3.62
69597;BMP180;70000;51.176;-115.568;2024-03-22T08:54:30;86702.40;;;-3.66
69597;BMP180;70000;51.176;-115.568;2024-03-22T08:56:59;86703.80;;;-3.70
69597;BMP180;70000;51.176;-115.568;2024-03-22T08:59:29;86699.60;;;-3.70
69597;BMP180;70000;51.176;-115.568;2024-03-22T09:01:58;86694.40;;;-3.70
69597;BMP180;70000;51.176;-115.568;2024-03-22T09:04:29;86694.80;;;-3.72
69597;BMP180;70000;51.176;-115.568;2024-03-22T09:06:58;86697.20;;;-3.80
69597;BMP180;70000;51.176;-115.568;2024-03-22T09:09:27;86692.80;;;-3.80
69597;BMP180;70000;51.176;-115.568;2024-03-22T09:14:27;86698.40;;;-3.80
69597;BMP180;70000;51.176;-115.568;2024-03-22T09:17:00;86693.40;;;-3.70
69597;BMP180;70000;51.176;-115.568;2024-03-22T09:19:30;86693.60;;;-3.78
69597;BMP180;70000;51.176;-115.568;2024-03-22T09:22:00;86697.20;;;-3.78
69597;BMP180;70000;51.176;-115.568;2024-03-22T09:24:30;86695.20;;;-3.78
69597;BMP180;70000;51.176;-115.568;2024-03-22T09:26:59;86696.20;;;-3.74
69597;BMP180;70000;51.176;-115.568;2024-03-22T09:29:28;86692.80;;;-3.72
69597;BMP180;70000;51.176;-115.568;2024-03-22T09:31:57;86694.60;;;-3.70
69597;BMP180;70000;51.176;-115.568;2024-03-22T09:34:26;86698.60;;;-3.70
69597;BMP180;70000;51.176;-115.568;2024-03-22T09:36:56;86696.00;;;-3.70
69597;BMP180;70000;51.176;-115.568;2024-03-22T09:39:25;86694.00;;;-3.70
69597;BMP180;70000;51.176;-115.568;2024-03-22T09:41:57;86696.20;;;-3.70
69597;BMP180;70000;51.176;-115.568;2024-03-22T09:44:28;86696.40;;;-3.72
69597;BMP180;70000;51.176;-115.568;2024-03-22T09:46:58;86693.60;;;-3.76
69597;BMP180;70000;51.176;-115.568;2024-03-22T09:49:27;86697.20;;;-3.78
69597;BMP180;70000;51.176;-115.568;2024-03-22T09:51:56;86691.60;;;-3.70
69597;BMP180;70000;51.176;-115.568;2024-03-22T09:54:25;86689.20;;;-3.72
69597;BMP180;70000;51.176;-115.568;2024-03-22T09:56:57;86694.20;;;-3.70
69597;BMP180;70000;51.176;-115.568;2024-03-22T10:07:24;86685.00;;;-3.80
69597;BMP180;70000;51.176;-115.568;2024-03-22T10:09:53;86683.00;;;-3.80
69597;BMP180;70000;51.176;-115.568;2024-03-22T10:12:22;86678.20;;;-3.78
69597;BMP180;70000;51.176;-115.568;2024-03-22T10:14:54;86677.60;;;-3.78
69597;BMP180;70000;51.176;-115.568;2024-03-22T10:17:28;86673.40;;;-3.80
69597;BMP180;70000;51.176;-115.568;2024-03-22T10:19:57;86673.80;;;-3.80
69597;BMP180;70000;51.176;-115.568;2024-03-22T10:22:26;86672.40;;;-3.78
69597;BMP180;70000;51.176;-115.568;2024-03-22T10:24:55;86673.60;;;-3.78
69597;BMP180;70000;51.176;-115.568;2024-03-22T10:27:29;86668.80;;;-3.76
69597;BMP180;70000;51.176;-115.568;2024-03-22T10:29:59;86665.40;;;-3.80
69597;BMP180;70000;51.176;-115.568;2024-03-22T10:32:29;86661.40;;;-3.80
69597;BMP180;70000;51.176;-115.568;2024-03-22T10:34:58;86661.40;;;-3.80
69597;BMP180;70000;51.176;-115.568;2024-03-22T10:37:27;86653.40;;;-3.80
69597;BMP180;70000;51.176;-115.568;2024-03-22T10:39:58;86654.80;;;-3.80
69597;BMP180;70000;51.176;-115.568;2024-03-22T10:42:30;86656.60;;;-3.80
69597;BMP180;70000;51.176;-115.568;2024-03-22T10:44:59;86653.60;;;-3.80
69597;BMP180;70000;51.176;-115.568;2024-03-22T10:47:31;86654.40;;;-3.82
69597;BMP180;70000;51.176;-115.568;2024-03-22T10:50:11;86645.80;;;-3.82
69597;BMP180;70000;51.176;-115.568;2024-03-22T10:52:57;86651.60;;;-3.80
69597;BMP180;70000;51.176;-115.568;2024-03-22T10:55:41;86654.20;;;-3.88
69597;BMP180;70000;51.176;-115.568;2024-03-22T10:58:18;86651.00;;;-3.84
69597;BMP180;70000;51.176;-115.568;2024-03-22T11:00:53;86644.80;;;-3.82
69597;BMP180;70000;51.176;-115.568;2024-03-22T11:03:26;86645.80;;;-3.86
69597;BMP180;70000;51.176;-115.568;2024-03-22T11:10:03;86647.40;;;-3.80
69597;BMP180;70000;51.176;-115.568;2024-03-22T11:12:37;86648.00;;;-3.80
69597;BMP180;70000;51.176;-115.568;2024-03-22T11:15:07;86647.40;;;-3.80
69597;BMP180;70000;51.176;-115.568;2024-03-22T11:17:37;86651.80;;;-3.80
69597;BMP180;70000;51.176;-115.568;2024-03-22T11:20:06;86648.60;;;-3.80
69597;BMP180;70000;51.176;-115.568;2024-03-22T11:22:35;86654.00;;;-3.88
69597;BMP180;70000;51.176;-115.568;2024-03-22T11:25:04;86653.40;;;-3.90
69597;BMP180;70000;51.176;-115.568;2024-03-22T11:27:33;86657.40;;;-4.00
69597;BMP180;70000;51.176;-115.568;2024-03-22T11:30:02;86660.00;;;-4.00
69597;BMP180;70000;51.176;-115.568;2024-03-22T11:32:37;86655.60;;;-4.00
69597;BMP180;70000;51.176;-115.568;2024-03-22T11:35:13;86656.80;;;-4.06
69597;BMP180;70000;51.176;-115.568;2024-03-22T11:37:42;86656.60;;;-4.10
69597;BMP180;70000;51.176;-115.568;2024-03-22T11:40:12;86653.80;;;-4.10
69597;BMP180;70000;51.176;-115.568;2024-03-22T11:42:44;86654.20;;;-4.10
69597;BMP180;70000;51.176;-115.568;2024-03-22T11:45:17;86655.00;;;-4.12
69597;BMP180;70000;51.176;-115.568;2024-03-22T11:47:47;86656.80;;;-4.20
69597;BMP180;70000;51.176;-115.568;2024-03-22T11:50:16;86653.00;;;-4.20
69597;BMP180;70000;51.176;-115.568;2024-03-22T11:52:44;86653.00;;;-4.20
69597;BMP180;70000;51.176;-115.568;2024-03-22T11:55:41;86650.40;;;-4.20
69597;BMP180;70000;51.176;-115.568;2024-03-22T11:58:10;86649.40;;;-4.20
69597;BMP180;70000;51.176;-115.568;2024-03-22T12:00:39;86649.20;;;-4.20
69597;BMP180;70000;51.176;-115.568;2024-03-22T12:03:29;86653.00;;;-4.20
69597;BMP180;70000;51.176;-115.568;2024-03-22T12:05:58;86650.20;;;-4.26
69597;BMP180;70000;51.176;-115.568;2024-03-22T12:10:46;86640.40;;;-4.24
69597;BMP180;70000;51.176;-115.568;2024-03-22T12:13:15;86642.20;;;-4.26
69597;BMP180;70000;51.176;-115.568;2024-03-22T12:15:44;86649.80;;;-4.30
69597;BMP180;70000;51.176;-115.568;2024-03-22T12:18:13;86649.20;;;-4.30
69597;BMP180;70000;51.176;-115.568;2024-03-22T12:20:42;86643.40;;;-4.30
69597;BMP180;70000;51.176;-115.568;2024-03-22T12:23:14;86641.80;;;-4.30
69597;BMP180;70000;51.176;-115.568;2024-03-22T12:25:43;86642.00;;;-4.40
69597;BMP180;70000;51.176;-115.568;2024-03-22T12:28:12;86644.60;;;-4.40
69597;BMP180;70000;51.176;-115.568;2024-03-22T12:30:41;86642.20;;;-4.40
69597;BMP180;70000;51.176;-115.568;2024-03-22T12:33:10;86644.40;;;-4.42
69597;BMP180;70000;51.176;-115.568;2024-03-22T12:35:40;86641.00;;;-4.50
69597;BMP180;70000;51.176;-115.568;2024-03-22T12:38:09;86643.40;;;-4.50
69597;BMP180;70000;51.176;-115.568;2024-03-22T12:40:42;86641.40;;;-4.60
69597;BMP180;70000;51.176;-115.568;2024-03-22T12:43:11;86644.40;;;-4.64
69597;BMP180;70000;51.176;-115.568;2024-03-22T12:45:40;86643.20;;;-4.70
69597;BMP180;70000;51.176;-115.568;2024-03-22T12:48:10;86643.40;;;-4.72
69597;BMP180;70000;51.176;-115.568;2024-03-22T12:50:39;86643.60;;;-4.80
69597;BMP180;70000;51.176;-115.568;2024-03-22T12:59:32;86643.60;;;-4.98
69597;BMP180;70000;51.176;-115.568;2024-03-22T13:02:01;86645.60;;;-5.00
69597;BMP180;70000;51.176;-115.568;2024-03-22T13:04:30;86642.40;;;-5.02
69597;BMP180;70000;51.176;-115.568;2024-03-22T13:10:25;86646.80;;;-5.16
69597;BMP180;70000;51.176;-115.568;2024-03-22T13:13:00;86642.00;;;-5.20
69597;BMP180;70000;51.176;-115.568;2024-03-22T13:15:29;86645.00;;;-5.20
69597;BMP180;70000;51.176;-115.568;2024-03-22T13:18:00;86647.20;;;-5.20
69597;BMP180;70000;51.176;-115.568;2024-03-22T13:20:29;86646.80;;;-5.20
69597;BMP180;70000;51.176;-115.568;2024-03-22T13:22:58;86642.00;;;-5.20
69597;BMP180;70000;51.176;-115.568;2024-03-22T13:25:29;86641.00;;;-5.28
69597;BMP180;70000;51.176;-115.568;2024-03-22T13:27:58;86645.00;;;-5.30
69597;BMP180;70000;51.176;-115.568;2024-03-22T13:30:30;86642.80;;;-5.30
69597;BMP180;70000;51.176;-115.568;2024-03-22T13:32:59;86641.40;;;-5.30
69597;BMP180;70000;51.176;-115.568;2024-03-22T13:36:08;86646.00;;;-5.22
69597;BMP180;70000;51.176;-115.568;2024-03-22T13:38:38;86643.60;;;-5.20
69597;BMP180;70000;51.176;-115.568;2024-03-22T13:41:07;86646.20;;;-5.20
69597;BMP180;70000;51.176;-115.568;2024-03-22T13:43:35;86646.80;;;-5.20
69597;BMP180;70000;51.176;-115.568;2024-03-22T13:46:25;86641.20;;;-5.20
69597;BMP180;70000;51.176;-115.568;2024-03-22T13:48:54;86638.20;;;-5.20
69597;BMP180;70000;51.176;-115.568;2024-03-22T13:51:23;86641.40;;;-5.20
69597;BMP180;70000;51.176;-115.568;2024-03-22T13:53:57;86640.80;;;-5.20
69597;BMP180;70000;51.176;-115.568;2024-03-22T13:56:26;86644.60;;;-5.20
69597;BMP180;70000;51.176;-115.568;2024-03-22T13:58:56;86638.80;;;-5.20
69597;BMP180;70000;51.176;-115.568;2024-03-22T14:01:42;86639.80;;;-5.20
69597;BMP180;70000;51.176;-115.568;2024-03-22T14:04:14;86640.20;;;-5.20
69597;BMP180;70000;51.176;-115.568;2024-03-22T14:06:48;86641.40;;;-5.20
69597;BMP180;70000;51.176;-115.568;2024-03-22T14:09:18;86643.20;;;-5.20
69597;BMP180;70000;51.176;-115.568;2024-03-22T14:11:49;86643.60;;;-5.20
69597;BMP180;70000;51.176;-115.568;2024-03-22T14:14:18;86639.20;;;-5.20
69597;BMP180;70000;51.176;-115.568;2024-03-22T14:16:52;86629.60;;;-5.20
69597;BMP180;70000;51.176;-115.568;2024-03-22T14:19:22;86632.00;;;-5.20
69597;BMP180;70000;51.176;-115.568;2024-03-22T14:21:51;86637.60;;;-5.20
69597;BMP180;70000;51.176;-115.568;2024-03-22T14:24:25;86634.40;;;-5.20
69597;BMP180;70000;51.176;-115.568;2024-03-22T14:26:59;86629.00;;;-5.22
69597;BMP180;70000;51.176;-115.568;2024-03-22T14:29:52;86632.20;;;-5.22
69597;BMP180;70000;51.176;-115.568;2024-03-22T14:32:20;86634.80;;;-5.20
69597;BMP180;70000;51.176;-115.568;2024-03-22T14:34:52;86636.80;;;-5.20
69597;BMP180;70000;51.176;-115.568;2024-03-22T14:37:26;86633.00;;;-5.20
69597;BMP180;70000;51.176;-115.568;2024-03-22T14:40:01;86632.60;;;-5.24
69597;BMP180;70000;51.176;-115.568;2024-03-22T14:42:33;86629.80;;;-5.28
69597;BMP180;70000;51.176;-115.568;2024-03-22T14:45:03;86633.40;;;-5.30
69597;BMP180;70000;51.176;-115.568;2024-03-22T14:47:35;86630.80;;;-5.26
69597;BMP180;70000;51.176;-115.568;2024-03-22T14:50:05;86630.40;;;-5.20
69597;BMP180;70000;51.176;-115.568;2024-03-22T14:52:34;86624.80;;;-5.20
69597;BMP180;70000;51.176;-115.568;2024-03-22T14:55:03;86625.40;;;-5.20
69597;BMP180;70000;51.176;-115.568;2024-03-22T14:57:32;86626.40;;;-5.18
69597;BMP180;70000;51.176;-115.568;2024-03-22T15:00:04;86620.80;;;-5.10
69597;BMP180;70000;51.176;-115.568;2024-03-22T15:02:38;86622.80;;;-5.10
69597;BMP180;70000;51.176;-115.568;2024-03-22T15:05:07;86619.60;;;-5.10
69597;BMP180;70000;51.176;-115.568;2024-03-22T15:07:36;86617.40;;;-5.08
69597;BMP180;70000;51.176;-115.568;2024-03-22T15:12:42;86620.40;;;-5.02
69597;BMP180;70000;51.176;-115.568;2024-03-22T15:15:11;86612.60;;;-5.00
69597;BMP180;70000;51.176;-115.568;2024-03-22T15:17:40;86621.20;;;-4.92
69597;BMP180;70000;51.176;-115.568;2024-03-22T15:20:10;86618.40;;;-4.90
69597;BMP180;70000;51.176;-115.568;2024-03-22T15:22:39;86619.00;;;-4.80
69597;BMP180;70000;51.176;-115.568;2024-03-22T15:25:08;86623.20;;;-4.80
69597;BMP180;70000;51.176;-115.568;2024-03-22T15:27:37;86620.20;;;-4.80
69597;BMP180;70000;51.176;-115.568;2024-03-22T15:30:06;86618.00;;;-4.80
69597;BMP180;70000;51.176;-115.568;2024-03-22T15:32:38;86616.20;;;-4.80
69597;BMP180;70000;51.176;-115.568;2024-03-22T15:35:08;86613.20;;;-4.74
69597;BMP180;70000;51.176;-115.568;2024-03-22T15:37:39;86609.40;;;-4.70
69597;BMP180;70000;51.176;-115.568;2024-03-22T15:40:08;86603.40;;;-4.70